KEWB

New Bedford Regional Airport

New Bedford, Massachusetts, USA
METAR KEWB 201853Z COR 25012KT 10SM BKN034 17/11 A2958 RMK AO2 SLP015 T01720106
Observed Flight Rules
Oct-20 @ 18:53 UTC (38 minutes ago) Visual Flight Rules
Wind Visibility Clouds
250° at 12 knots 10 miles
  • Broken at 3,400' AGL
Temperatures Readings
Current 17°C / 63°F
Dewpoint 11°C / 52°F
Humidity 68%
Altimeter 29.58" Hg
Pressure 1001.5 hPa
Elevation 23
METAR KEWB 201853Z COR 25012KT 10SM BKN034 17/11 A2958 RMK AO2 SLP015 T01720106
Observed Flight Rules
Oct-20 @ 18:53 UTC
(38 minutes ago)
VFR
Wind Visibility
250° at 12 knots 10 miles
Clouds
  • Broken at 3,400' AGL
Temperature Dewpoint
17°C / 63°F 11°C / 52°F
Humidity Altimeter Pressure
68% 29.58" Hg 1001.5 hPa